Flight Track Log - Related Links

Times and Time Zones

All times are in EDT time to prevent confusion due to time zone crossing. See the N960DL flight status page for this flight to view local times or setup timezone preferences in your user account.

Time Position Orientation Groundspeed Altitude Reporting Facility
EDT Latitude Longitude Course Direction KTS MPH feet Rate Location/Type
Mon 07:11:54 AM 41.5075 -93.7031 137° Southeast 190 219 33,000  Level Chicago Center
Mon 07:12:09 AM 41.4914 -93.7236 224° Southwest 196 226 3,400 -21,600 Descending Minneapolis Center
Mon 07:13:09 AM 41.4314 -93.7053 167° South 247 284 6,000 2,678 Climbing Minneapolis Center
Mon 07:14:10 AM 41.3781 -93.6133 128° Southeast 295 339 8,800 2,479 Climbing Minneapolis Center
Mon 07:15:10 AM 41.3131 -93.5319 137° Southeast 318 366 11,000 1,934 Climbing Minneapolis Center
Mon 07:16:11 AM 41.2428 -93.4428 136° Southeast 349 402 12,700 1,537 Climbing Minneapolis Center
Mon 07:17:00 AM 41.0005 -93.0918 137° Southeast  Level FlightAware Approximate
Mon 07:17:11 AM 41.1625 -93.3375 135° Southeast 406 467 14,100  Level Minneapolis Center
Mon 07:18:12 AM 41.0814 -93.2292 135° Southeast 415 478 17,200 2,579 Climbing Minneapolis Center
Mon 07:19:12 AM 41.0064 -93.1367 137° Southeast 412 474 19,300 1,785 Climbing Minneapolis Center
Mon 07:20:13 AM 40.9208 -93.0275 136° Southeast 422 486 20,800 1,388 Climbing Minneapolis Center
Mon 07:21:26 AM 40.8136 -92.8878 135° Southeast 441 507 22,400 1,730 Climbing Minneapolis Center
Mon 07:22:04 AM 40.7389 -92.7900 135° Southeast 464 534 24,000 1,636 Climbing Chicago Center
Mon 07:23:05 AM 40.6456 -92.6703 136° Southeast 467 537 25,100 1,133 Climbing Chicago Center
Mon 07:23:34 AM 40.6075 -92.6208 135° Southeast 472 543 25,700 1,780 Climbing Kansas City Center
Mon 07:24:36 AM 40.5114 -92.4994 136° Southeast 483 556 27,800 1,770 Climbing Kansas City Center
Mon 07:25:36 AM 40.4192 -92.3831 136° Southeast 470 541 29,300 1,171 Climbing Kansas City Center
Mon 07:26:39 AM 40.3219 -92.2603 136° Southeast 464 534 30,200 829 Climbing Kansas City Center
Mon 07:27:39 AM 40.2278 -92.1406 136° Southeast 468 539 31,000 843 Climbing Kansas City Center
Mon 07:28:40 AM 40.1361 -92.0111 133° Southeast 481 554 31,900 958 Climbing Kansas City Center
Mon 07:29:38 AM 40.0456 -91.8811 132° Southeast 486 559 32,900 541 Climbing Kansas City Center
Mon 07:30:42 AM 39.9561 -91.7533 132° Southeast 482 555 33,000 48 Climbing Kansas City Center
Mon 07:31:42 AM 39.8678 -91.6247 132° Southeast 479 551 33,000  Level Kansas City Center
Mon 07:32:43 AM 39.7781 -91.4939 132° Southeast 485 558 33,000  Level Kansas City Center
Mon 07:33:43 AM 39.6706 -91.3403 132° Southeast 483 556 33,000  Level Kansas City Center
Mon 07:34:43 AM 39.5933 -91.2272 132° Southeast 482 555 33,000  Level Kansas City Center
Mon 07:35:46 AM 39.5036 -91.0972 132° Southeast 484 557 33,000  Level Kansas City Center
Mon 07:36:47 AM 39.4119 -90.9697 133° Southeast 485 558 33,000  Level Kansas City Center
Mon 07:37:48 AM 39.3203 -90.8411 133° Southeast 485 558 33,000  Level Kansas City Center
Mon 07:38:48 AM 39.2083 -90.6858 133° Southeast 491 565 33,000  Level Kansas City Center
Mon 07:39:50 AM 39.1156 -90.5558 133° Southeast 492 566 33,000  Level Kansas City Center
Mon 07:40:51 AM 39.0228 -90.4278 133° Southeast 489 563 33,000  Level Kansas City Center
Mon 07:41:50 AM 38.9294 -90.2989 133° Southeast 487 560 33,000  Level Kansas City Center
Mon 07:42:50 AM 38.8439 -90.1836 134° Southeast 488 562 33,000  Level Kansas City Center
Mon 07:43:54 AM 38.7494 -90.0553 133° Southeast 491 565 33,000  Level Kansas City Center
Mon 07:44:56 AM 38.6444 -89.9111 133° Southeast 493 567 33,000  Level Kansas City Center
Mon 07:45:56 AM 38.5511 -89.7853 133° Southeast 488 562 33,000  Level Kansas City Center
Mon 07:46:55 AM 38.4489 -89.6486 134° Southeast 487 560 33,000  Level Kansas City Center
Mon 07:47:55 AM 38.3564 -89.5236 133° Southeast 485 558 33,000  Level Kansas City Center
Mon 07:48:57 AM 38.2636 -89.3994 134° Southeast 483 556 33,000  Level Kansas City Center
Mon 07:49:58 AM 38.1717 -89.2767 134° Southeast 481 554 33,000  Level Kansas City Center
Mon 07:51:00 AM 38.0797 -89.1519 133° Southeast 483 556 33,000  Level Kansas City Center
Mon 07:52:02 AM 37.9933 -89.0394 134° Southeast 482 555 33,000  Level Kansas City Center
Mon 07:53:01 AM 37.9011 -88.9169 134° Southeast 485 558 33,000  Level Kansas City Center
Mon 07:54:04 AM 37.7969 -88.7783 134° Southeast 486 559 33,000  Level Kansas City Center
Mon 07:55:05 AM 37.6936 -88.6472 135° Southeast 484 557 33,000  Level Kansas City Center
Mon 07:56:06 AM 37.6000 -88.5258 134° Southeast 482 555 33,000  Level Kansas City Center
Mon 07:57:05 AM 37.5133 -88.4122 134° Southeast 485 558 33,000  Level Kansas City Center
Mon 07:58:18 AM 37.3997 -88.2683 135° Southeast 479 551 33,000  Level Memphis Center
Mon 07:59:18 AM 37.3058 -88.1431 133° Southeast 479 551 33,000  Level Memphis Center
Mon 08:00:18 AM 37.1969 -88.0056 135° Southeast 485 558 33,000  Level Memphis Center
Mon 08:01:18 AM 37.1008 -87.8836 135° Southeast 492 566 33,000  Level Memphis Center
Mon 08:02:18 AM 37.0156 -87.7769 135° Southeast 497 572 33,000  Level Memphis Center
Mon 08:03:18 AM 36.9189 -87.6531 134° Southeast 497 572 33,000  Level Memphis Center
Mon 08:04:18 AM 36.8267 -87.5342 134° Southeast 490 564 33,000  Level Memphis Center
Mon 08:05:18 AM 36.7303 -87.4133 135° Southeast 490 564 33,000  Level Memphis Center
Mon 08:06:18 AM 36.6336 -87.2956 136° Southeast 485 558 33,000  Level Memphis Center
Mon 08:07:18 AM 36.5389 -87.1750 134° Southeast 485 558 33,000  Level Memphis Center
Mon 08:08:18 AM 36.4439 -87.0575 135° Southeast 480 552 33,000  Level Memphis Center
Mon 08:09:18 AM 36.3450 -86.9378 136° Southeast 480 552 33,000  Level Memphis Center
Mon 08:10:18 AM 36.2478 -86.8186 135° Southeast 491 565 33,000  Level Memphis Center
Mon 08:11:18 AM 36.1525 -86.6992 135° Southeast 496 571 33,000  Level Memphis Center
Mon 08:12:18 AM 36.0453 -86.6014 144° Southeast 482 555 33,000  Level Memphis Center
Mon 08:14:27 AM 35.7978 -86.4019 147° Southeast 467 537 33,000  Level Atlanta Center
Mon 08:15:27 AM 35.6869 -86.3142 147° Southeast 477 549 33,000  Level Atlanta Center
Mon 08:16:27 AM 35.5758 -86.2244 147° Southeast 477 549 33,000 -50 Level Atlanta Center
Mon 08:17:27 AM 35.4769 -86.1503 149° Southeast 472 543 32,900 -1,050 Descending Atlanta Center
Mon 08:18:27 AM 35.3556 -86.0506 146° Southeast 472 543 30,900 -1,600 Descending Atlanta Center
Mon 08:19:27 AM 35.2356 -85.9839 156° South 477 549 29,700 -950 Descending Atlanta Center
Mon 08:20:27 AM 35.1289 -85.9992 187° South 444 511 29,000 -900 Descending Atlanta Center
Mon 08:21:27 AM 35.0164 -85.9917 177° South 422 486 27,900 -1,000 Descending Atlanta Center
Mon 08:22:27 AM 34.9258 -85.9033 141° Southeast 400 460 27,000 -450 Descending Atlanta Center
Mon 08:23:27 AM 34.8375 -85.8153 141° Southeast 395 455 27,000 -650 Level Atlanta Center
Mon 08:24:27 AM 34.7511 -85.7250 139° Southeast 408 470 25,700 -1,400 Descending Atlanta Center
Mon 08:25:27 AM 34.6689 -85.6400 140° Southeast 403 464 24,200 -1,000 Descending Atlanta Center
Mon 08:26:27 AM 34.5864 -85.5553 140° Southeast 398 458 23,700 -1,100 Descending Atlanta Center
Mon 08:27:27 AM 34.5058 -85.4731 140° Southeast 391 450 22,000 -1,650 Descending Atlanta Center
Mon 08:28:27 AM 34.4275 -85.3911 139° Southeast 379 436 20,400 -1,650 Descending Atlanta Center
Mon 08:29:27 AM 34.3511 -85.3119 139° Southeast 368 423 18,700 -1,600 Descending Atlanta Center
Mon 08:30:27 AM 34.2769 -85.2381 141° Southeast 363 418 17,200 -1,600 Descending Atlanta Center
Mon 08:31:27 AM 34.2025 -85.1614 140° Southeast 358 412 15,500 -1,750 Descending Atlanta Center
Mon 08:32:27 AM 34.1342 -85.0828 136° Southeast 341 392 13,700 -1,300 Descending Atlanta Center
Mon 08:33:27 AM 34.0681 -85.0067 136° Southeast 331 381 12,900 -1,000 Descending Atlanta Center
Mon 08:34:27 AM 33.9892 -84.9608 154° Southeast 320 368 11,700 -1,350 Descending Atlanta Center
Mon 08:35:27 AM 33.9100 -84.9250 159° South 309 356 10,200 -1,350 Descending Atlanta Center
Mon 08:36:27 AM 33.8286 -84.9164 175° South 299 344 9,000 -1,050 Descending Atlanta Center
Mon 08:37:27 AM 33.7453 -84.9131 178° South 299 344 8,100 -1,000 Descending Atlanta Center
Mon 08:38:27 AM 33.6597 -84.9072 177° South 289 333 7,000 -500 Descending Atlanta Center
Mon 08:39:27 AM 33.6225 -84.8497 128° Southeast 209 241 7,100 -125 Climbing Atlanta Center
Mon 08:40:03 AM 33.6333 -84.8000 75° East 241 277 6,800 -1,133 Descending Atlanta TRACON
Mon 08:40:57 AM 33.6333 -84.7333 90° East 226 260 5,400 -1,250 Descending Atlanta TRACON
Mon 08:42:03 AM 33.6333 -84.6500 90° East 215 247 4,300 -1,048 Descending Atlanta TRACON
Mon 08:43:03 AM 33.6333 -84.5833 90° East 195 224 3,200 -1,050 Descending Atlanta TRACON
Mon 08:44:03 AM 33.6333 -84.5167 90° East 172 198 2,200 -850 Descending Atlanta TRACON
Mon 08:45:03 AM 33.6333 -84.4667 90° East 141 162 1,500 -700 Descending Atlanta TRACON
Mon 08:47:00 AM 33.6367 -84.4279 North  Level Estimated
Mon 08:54:00 AM 33.6367 -84.4279 North  Level Estimated

Login

Don't have an account? Register now (free) for customized features, flight alerts, and more!